Time;durP1;ratioP1;P1;durP2;ratioP2;P2;SDS_P1;SDS_P2;PMS_P1;PMS_P2;Temp;Humidity;BMP_temperature;BMP_pressure;BME280_temperature;BME280_humidity;BME280_pressure;Samples;Min_cycle;Max_cycle;Signal;HPM_P1;HPM_P2
2021/01/06 00:02:07;;;;;;;19.48;11.90;;;3.30;99.90;;;;;;5068744;28;20188;-87
2021/01/06 00:04:34;;;;;;;18.58;11.32;;;3.30;99.90;;;;;;5063675;28;20188;-87
2021/01/06 00:07:01;;;;;;;16.02;12.73;;;3.30;99.90;;;;;;5061074;28;20651;-85
2021/01/06 00:09:27;;;;;;;18.10;13.30;;;3.30;99.90;;;;;;5064671;28;20257;-85
2021/01/06 00:11:54;;;;;;;15.93;10.75;;;3.30;99.90;;;;;;5076206;28;20321;-87
2021/01/06 00:14:20;;;;;;;15.88;12.00;;;3.30;99.90;;;;;;5074973;28;20188;-87
2021/01/06 00:16:52;;;;;;;19.67;11.55;;;3.40;99.90;;;;;;5075512;28;20195;-87
2021/01/06 00:19:18;;;;;;;18.55;11.77;;;3.40;99.90;;;;;;5073848;28;20195;-87
2021/01/06 00:21:45;;;;;;;15.45;12.05;;;3.30;99.90;;;;;;5073312;28;20200;-87
2021/01/06 00:24:12;;;;;;;18.15;12.45;;;3.30;99.90;;;;;;5075719;28;20195;-87
2021/01/06 00:26:38;;;;;;;16.58;11.85;;;3.40;99.90;;;;;;5074127;28;20180;-87
2021/01/06 00:29:08;;;;;;;23.00;13.55;;;3.40;99.90;;;;;;5076351;28;20222;-87
2021/01/06 00:31:37;;;;;;;16.25;11.30;;;3.40;99.90;;;;;;5055930;28;20191;-87
2021/01/06 00:34:04;;;;;;;15.75;10.65;;;3.40;99.90;;;;;;5055884;28;20223;-87
2021/01/06 00:36:30;;;;;;;18.98;11.35;;;3.40;99.90;;;;;;5056196;28;20184;-87
2021/01/06 00:38:56;;;;;;;15.55;11.30;;;3.40;99.90;;;;;;5056025;28;20189;-87
2021/01/06 00:41:27;;;;;;;16.50;11.60;;;3.40;99.90;;;;;;5055803;28;20187;-87
2021/01/06 00:43:53;;;;;;;17.45;11.77;;;3.40;99.90;;;;;;5056219;28;20206;-87
2021/01/06 00:46:20;;;;;;;18.83;12.32;;;3.40;99.90;;;;;;5055684;28;20191;-87
2021/01/06 00:48:46;;;;;;;17.65;12.10;;;3.30;99.90;;;;;;5055822;28;20224;-87
2021/01/06 00:51:12;;;;;;;16.15;11.60;;;3.30;99.90;;;;;;5055416;28;20191;-87
2021/01/06 00:53:39;;;;;;;15.45;10.52;;;3.40;99.90;;;;;;5055565;28;20199;-87
2021/01/06 00:56:05;;;;;;;16.42;12.15;;;3.30;99.90;;;;;;5055137;28;20183;-87
2021/01/06 00:58:33;;;;;;;19.52;13.20;;;3.40;99.90;;;;;;5054840;28;20191;-86
2021/01/06 01:00:59;;;;;;;14.63;13.07;;;3.30;99.90;;;;;;5055579;28;20199;-86
2021/01/06 01:03:25;;;;;;;15.98;11.25;;;3.40;99.90;;;;;;5055693;28;20631;-87
2021/01/06 01:05:51;;;;;;;16.17;11.80;;;3.30;99.90;;;;;;5055086;28;20543;-86
2021/01/06 01:08:18;;;;;;;19.02;13.10;;;3.30;99.90;;;;;;5055927;28;20579;-87
2021/01/06 01:10:47;;;;;;;16.77;10.88;;;3.30;99.90;;;;;;5055585;28;20183;-86
2021/01/06 01:13:15;;;;;;;13.95;10.07;;;3.30;99.90;;;;;;5055534;28;20640;-86
2021/01/06 01:15:46;;;;;;;13.25;10.68;;;3.30;99.90;;;;;;5058897;28;20198;-87
2021/01/06 01:18:14;;;;;;;19.02;12.13;;;3.40;99.90;;;;;;5075337;28;20597;-87
2021/01/06 01:20:45;;;;;;;16.48;11.95;;;3.40;99.90;;;;;;5071151;28;20180;-86
2021/01/06 01:23:12;;;;;;;16.50;11.73;;;3.30;99.90;;;;;;5055341;28;20220;-87
2021/01/06 01:25:38;;;;;;;15.73;11.43;;;3.40;99.90;;;;;;5070941;28;20201;-87
2021/01/06 01:28:05;;;;;;;15.30;12.23;;;3.30;99.90;;;;;;5055486;28;20211;-86
2021/01/06 01:31:07;;;;;;;18.15;11.30;;;3.30;99.90;;;;;;5071998;28;20215;-86
2021/01/06 01:33:33;;;;;;;18.92;12.98;;;3.30;99.90;;;;;;5075152;28;20226;-87
2021/01/06 01:36:00;;;;;;;15.13;11.50;;;3.30;99.90;;;;;;5074926;28;20188;-87
2021/01/06 01:38:29;;;;;;;18.83;12.13;;;3.30;99.90;;;;;;5075323;28;20660;-87
2021/01/06 01:41:03;;;;;;;18.60;12.75;;;3.30;99.90;;;;;;5075353;28;20182;-87
2021/01/06 01:43:30;;;;;;;17.23;11.88;;;3.30;99.90;;;;;;5075253;28;20202;-86
2021/01/06 01:46:37;;;;;;;14.77;11.63;;;3.30;99.90;;;;;;5075298;28;20199;-85
2021/01/06 01:49:06;;;;;;;16.63;12.35;;;3.30;99.90;;;;;;5055000;28;20216;-87
2021/01/06 01:51:39;;;;;;;15.27;10.57;;;3.30;99.90;;;;;;5054895;28;20669;-86
2021/01/06 01:54:08;;;;;;;16.35;10.93;;;3.30;99.90;;;;;;5055180;28;20660;-86
2021/01/06 01:56:44;;;;;;;15.02;11.32;;;3.30;99.90;;;;;;5054704;28;20187;-86
2021/01/06 01:59:17;;;;;;;16.55;10.73;;;3.30;99.90;;;;;;5054315;28;20199;-86
2021/01/06 02:01:48;;;;;;;14.68;11.00;;;3.30;99.90;;;;;;5054339;28;20584;-86
2021/01/06 02:04:19;;;;;;;14.07;10.38;;;3.30;99.90;;;;;;5053965;28;20219;-86
2021/01/06 02:06:53;;;;;;;15.40;10.60;;;3.40;99.90;;;;;;5054135;28;20737;-86
2021/01/06 02:09:24;;;;;;;14.73;10.40;;;3.40;99.90;;;;;;5053247;28;20567;-86
2021/01/06 02:11:56;;;;;;;18.23;10.95;;;3.30;99.90;;;;;;5053765;28;20195;-86
2021/01/06 02:14:28;;;;;;;13.10;10.02;;;3.30;99.90;;;;;;5066302;28;20206;-86
2021/01/06 02:17:01;;;;;;;14.02;9.70;;;3.30;99.90;;;;;;5070441;28;20198;-86
2021/01/06 02:19:30;;;;;;;13.57;10.05;;;3.30;99.90;;;;;;5068369;28;20187;-86
2021/01/06 02:21:58;;;;;;;16.08;11.23;;;3.30;99.90;;;;;;5073996;28;20661;-86
2021/01/06 02:24:24;;;;;;;14.35;10.63;;;3.30;99.90;;;;;;5066471;28;20202;-86
2021/01/06 02:26:51;;;;;;;14.27;10.10;;;3.30;99.90;;;;;;5055954;28;20532;-86
2021/01/06 02:29:18;;;;;;;13.00;9.25;;;3.40;99.90;;;;;;5070060;28;20268;-86
2021/01/06 02:31:45;;;;;;;15.60;11.10;;;3.40;99.90;;;;;;5061860;28;20199;-86
2021/01/06 02:34:12;;;;;;;14.00;9.95;;;3.40;99.90;;;;;;5053337;28;20227;-86
2021/01/06 02:36:38;;;;;;;15.35;9.80;;;3.40;99.90;;;;;;5053762;28;20562;-86
2021/01/06 02:39:08;;;;;;;14.50;10.23;;;3.40;99.90;;;;;;5053992;28;20548;-85
2021/01/06 02:41:35;;;;;;;12.98;9.00;;;3.40;99.90;;;;;;5064068;28;20187;-86
2021/01/06 02:44:03;;;;;;;15.23;10.57;;;3.40;99.90;;;;;;5060244;28;20185;-86
2021/01/06 02:46:29;;;;;;;13.60;10.30;;;3.40;99.90;;;;;;5063797;28;20184;-86
2021/01/06 02:48:56;;;;;;;11.95;8.88;;;3.40;99.90;;;;;;5073890;28;20221;-86
2021/01/06 02:51:26;;;;;;;17.00;10.35;;;3.40;99.90;;;;;;5065241;28;20192;-86
2021/01/06 02:53:55;;;;;;;13.68;10.23;;;3.40;99.90;;;;;;5054176;28;20179;-86
2021/01/06 02:56:23;;;;;;;12.65;10.27;;;3.40;99.90;;;;;;5056669;28;20210;-86
2021/01/06 02:58:52;;;;;;;14.65;10.55;;;3.30;99.90;;;;;;5073775;28;20224;-86
2021/01/06 03:01:23;;;;;;;12.70;10.07;;;3.30;99.90;;;;;;5054381;28;20188;-85
2021/01/06 03:03:51;;;;;;;14.05;9.85;;;3.30;99.90;;;;;;5053659;28;20192;-86
2021/01/06 03:06:23;;;;;;;15.90;11.02;;;3.30;99.90;;;;;;5060910;28;20590;-86
2021/01/06 03:08:50;;;;;;;11.63;9.00;;;3.30;99.90;;;;;;5066462;28;20212;-86
2021/01/06 03:11:16;;;;;;;17.23;12.00;;;3.30;99.90;;;;;;5059873;28;20187;-86
2021/01/06 03:13:43;;;;;;;14.50;10.27;;;3.30;99.90;;;;;;5072740;28;20187;-86
2021/01/06 03:16:09;;;;;;;14.35;9.70;;;3.30;99.90;;;;;;5060742;28;20245;-86
2021/01/06 03:18:36;;;;;;;16.23;10.23;;;3.30;99.90;;;;;;5053210;28;20184;-85
2021/01/06 03:21:06;;;;;;;14.18;9.95;;;3.30;99.90;;;;;;5053725;28;20203;-86
2021/01/06 03:23:35;;;;;;;16.58;11.95;;;3.30;99.90;;;;;;5060260;28;20184;-86
2021/01/06 03:26:05;;;;;;;15.32;11.30;;;3.30;99.90;;;;;;5076938;28;20213;-85
2021/01/06 03:28:33;;;;;;;16.35;11.25;;;3.30;99.90;;;;;;5076456;28;20261;-86
2021/01/06 03:31:03;;;;;;;14.65;11.07;;;3.30;99.90;;;;;;5076699;28;20175;-85
2021/01/06 03:33:34;;;;;;;15.60;11.35;;;3.30;99.90;;;;;;5075886;28;20682;-85
2021/01/06 03:36:05;;;;;;;15.23;9.95;;;3.30;99.90;;;;;;5057062;28;20203;-85
2021/01/06 03:38:33;;;;;;;14.00;10.63;;;3.30;99.90;;;;;;5057332;28;20188;-85
2021/01/06 03:41:01;;;;;;;16.70;11.57;;;3.20;99.90;;;;;;5083171;28;20199;-85
2021/01/06 03:43:30;;;;;;;16.60;10.63;;;3.20;99.90;;;;;;5077897;28;20190;-85
2021/01/06 03:46:02;;;;;;;13.27;9.50;;;3.20;99.90;;;;;;5057248;28;20195;-85
2021/01/06 03:48:35;;;;;;;14.70;10.02;;;3.20;99.90;;;;;;5076084;28;20256;-85
2021/01/06 03:51:14;;;;;;;13.32;8.80;;;3.20;99.90;;;;;;5063733;28;20234;-85
2021/01/06 03:53:43;;;;;;;13.68;10.68;;;3.20;99.90;;;;;;5056812;28;20536;-85
2021/01/06 03:56:14;;;;;;;13.68;10.88;;;3.20;99.90;;;;;;5046559;28;20218;-85
2021/01/06 03:58:49;;;;;;;16.80;9.52;;;3.20;99.90;;;;;;5039605;28;20187;-85
2021/01/06 04:01:32;;;;;;;13.70;9.90;;;3.10;99.90;;;;;;5055750;28;20187;-85
2021/01/06 04:04:05;;;;;;;10.25;8.38;;;3.10;99.90;;;;;;5067418;28;20183;-85
2021/01/06 04:06:35;;;;;;;12.85;8.70;;;3.10;99.90;;;;;;5058684;28;20183;-85
2021/01/06 04:09:05;;;;;;;13.02;7.95;;;3.10;99.90;;;;;;5070153;28;20335;-85
2021/01/06 04:11:35;;;;;;;11.93;8.68;;;3.10;99.90;;;;;;5056616;28;20201;-85
2021/01/06 04:14:02;;;;;;;11.52;6.88;;;3.00;99.90;;;;;;5064034;28;20182;-85
2021/01/06 04:16:29;;;;;;;9.75;6.85;;;3.00;99.90;;;;;;5056499;28;20671;-85
2021/01/06 04:18:55;;;;;;;9.88;8.07;;;3.00;99.90;;;;;;5069342;28;20249;-85
2021/01/06 04:21:22;;;;;;;8.38;6.88;;;3.00;99.90;;;;;;5057324;28;20188;-85
2021/01/06 04:23:49;;;;;;;11.93;7.72;;;2.90;99.90;;;;;;5064453;28;20184;-85
2021/01/06 04:26:17;;;;;;;12.10;9.43;;;2.90;99.90;;;;;;5056103;28;20237;-85
2021/01/06 04:28:43;;;;;;;12.98;9.88;;;2.90;99.90;;;;;;5056067;28;20666;-85
2021/01/06 04:31:15;;;;;;;11.25;8.50;;;2.90;99.90;;;;;;5055976;28;20195;-85
2021/01/06 04:33:44;;;;;;;12.43;9.82;;;2.90;99.90;;;;;;5055709;28;20563;-86
2021/01/06 04:36:18;;;;;;;16.30;10.57;;;2.90;99.90;;;;;;5056244;28;20650;-85
2021/01/06 04:38:46;;;;;;;17.23;13.20;;;3.00;99.90;;;;;;5059948;28;20180;-85
2021/01/06 04:41:24;;;;;;;16.88;12.55;;;3.00;99.90;;;;;;5067695;28;20594;-85
2021/01/06 04:44:01;;;;;;;19.63;14.00;;;2.90;99.90;;;;;;5056465;28;20631;-91
2021/01/06 04:46:37;;;;;;;16.27;13.60;;;3.00;99.90;;;;;;5056664;28;20207;-91
2021/01/06 04:49:23;;;;;;;17.77;13.45;;;3.00;99.90;;;;;;5056813;28;20210;-92
2021/01/06 04:52:04;;;;;;;17.33;13.73;;;3.00;99.90;;;;;;5064679;28;20183;-92
2021/01/06 04:54:46;;;;;;;22.67;15.43;;;3.00;99.90;;;;;;5056814;28;20188;-92
2021/01/06 04:57:36;;;;;;;20.95;14.52;;;2.90;99.90;;;;;;5056846;28;20652;-92
2021/01/06 05:00:22;;;;;;;18.85;14.05;;;2.90;99.90;;;;;;5056619;28;20202;-91
2021/01/06 05:03:04;;;;;;;20.83;14.90;;;2.90;99.90;;;;;;5056778;28;20218;-91
2021/01/06 05:05:52;;;;;;;19.65;14.75;;;2.90;99.90;;;;;;5038585;28;20195;-91
2021/01/06 05:08:26;;;;;;;19.88;15.32;;;2.90;99.90;;;;;;5048964;28;20183;-91
2021/01/06 05:10:59;;;;;;;23.27;16.55;;;2.90;99.90;;;;;;5056417;28;20198;-91
2021/01/06 05:13:33;;;;;;;20.60;15.90;;;2.90;99.90;;;;;;5039294;28;20258;-91
2021/01/06 05:16:02;;;;;;;18.40;15.38;;;2.90;99.90;;;;;;5056481;28;20202;-91
2021/01/06 05:18:30;;;;;;;17.10;13.95;;;3.00;99.90;;;;;;5060910;28;20187;-91
2021/01/06 05:20:58;;;;;;;22.52;15.40;;;2.80;99.90;;;;;;5085486;28;20502;-92
2021/01/06 05:23:28;;;;;;;21.98;15.63;;;2.90;99.90;;;;;;5083613;28;20550;-91
2021/01/06 05:28:39;;;;;;;16.40;13.85;;;2.90;99.90;;;;;;5071598;28;20199;-91
2021/01/06 05:31:05;;;;;;;21.60;14.77;;;2.90;99.90;;;;;;5078045;28;20196;-91
2021/01/06 05:33:35;;;;;;;19.25;14.88;;;2.80;99.90;;;;;;5076745;28;20218;-91
2021/01/06 05:36:03;;;;;;;17.58;13.55;;;2.90;99.90;;;;;;5073577;28;20193;-91
2021/01/06 05:38:30;;;;;;;16.45;13.15;;;2.90;99.90;;;;;;5058014;28;20227;-91
2021/01/06 05:40:57;;;;;;;21.35;15.13;;;2.80;99.90;;;;;;5060642;28;20631;-91
2021/01/06 05:43:42;;;;;;;16.67;13.15;;;2.80;99.90;;;;;;5060415;28;20175;-91
2021/01/06 05:46:26;;;;;;;16.67;12.60;;;2.90;99.90;;;;;;5064333;28;20195;-91
2021/01/06 05:48:56;;;;;;;17.27;14.18;;;2.90;99.90;;;;;;5064406;28;20219;-91
2021/01/06 05:51:30;;;;;;;22.77;16.15;;;2.90;99.90;;;;;;5062483;28;20202;-92
2021/01/06 05:54:00;;;;;;;19.17;14.38;;;2.80;99.90;;;;;;5056896;28;20648;-91
2021/01/06 05:56:56;;;;;;;17.23;13.57;;;2.80;99.90;;;;;;5063201;28;20244;-92
2021/01/06 05:59:36;;;;;;;18.95;14.30;;;2.80;99.90;;;;;;5045302;28;20236;-93
2021/01/06 06:02:16;;;;;;;17.25;13.52;;;2.80;99.90;;;;;;5067158;28;20189;-93
2021/01/06 06:04:52;;;;;;;19.65;14.73;;;2.70;99.90;;;;;;5058069;28;20209;-94
2021/01/06 06:07:37;;;;;;;21.00;15.35;;;2.80;99.90;;;;;;5064757;28;20582;-93
2021/01/06 06:10:30;;;;;;;19.95;14.52;;;2.80;99.90;;;;;;5075358;28;20215;-93
2021/01/06 06:13:45;;;;;;;20.95;15.02;;;2.80;99.90;;;;;;5071348;28;20634;-93
2021/01/06 06:16:27;;;;;;;23.45;16.33;;;2.90;99.90;;;;;;5062394;28;20191;-93
2021/01/06 06:19:10;;;;;;;20.75;16.13;;;2.80;99.90;;;;;;5079915;28;20289;-93
2021/01/06 06:21:42;;;;;;;20.23;14.00;;;2.80;99.90;;;;;;5067924;28;20714;-94
2021/01/06 06:24:34;;;;;;;17.85;14.32;;;2.90;99.90;;;;;;5060199;28;20269;-94
2021/01/06 06:27:26;;;;;;;20.13;14.70;;;2.80;99.90;;;;;;5054912;28;20354;-93
2021/01/06 06:30:07;;;;;;;19.58;13.05;;;2.90;99.90;;;;;;5066573;28;20222;-93
2021/01/06 06:32:34;;;;;;;20.00;13.38;;;2.80;99.90;;;;;;5059566;28;20233;-93
2021/01/06 06:35:07;;;;;;;20.27;13.88;;;2.90;99.90;;;;;;5080278;28;20187;-93
2021/01/06 06:37:34;;;;;;;18.98;13.02;;;2.90;99.90;;;;;;5064580;28;20243;-93
2021/01/06 06:40:10;;;;;;;19.15;13.90;;;2.80;99.90;;;;;;5068306;28;20325;-93
2021/01/06 06:42:54;;;;;;;24.13;14.20;;;2.90;99.90;;;;;;5080718;28;20190;-93
2021/01/06 06:45:45;;;;;;;23.48;14.63;;;2.90;99.90;;;;;;5078388;28;20227;-94
2021/01/06 06:48:22;;;;;;;18.88;14.50;;;2.90;99.90;;;;;;5068619;28;20218;-92
2021/01/06 06:50:56;;;;;;;20.83;14.43;;;2.90;99.90;;;;;;5059452;28;20205;-94
2021/01/06 06:53:44;;;;;;;19.77;14.10;;;2.90;99.90;;;;;;5059241;28;20271;-92
2021/01/06 06:56:29;;;;;;;22.52;16.25;;;2.90;99.90;;;;;;5080603;28;20247;-94
2021/01/06 06:59:01;;;;;;;22.42;16.10;;;2.90;99.90;;;;;;5085056;28;20205;-93
2021/01/06 07:01:34;;;;;;;22.15;14.55;;;2.90;99.90;;;;;;5079982;28;20266;-92
2021/01/06 07:04:04;;;;;;;22.13;16.70;;;2.90;99.90;;;;;;5095320;28;20197;-94
2021/01/06 07:06:33;;;;;;;21.80;15.98;;;2.90;99.90;;;;;;5087562;28;20210;-93
2021/01/06 07:09:06;;;;;;;25.05;16.77;;;2.90;99.90;;;;;;5074256;28;20274;-95
2021/01/06 07:11:39;;;;;;;20.92;16.20;;;2.90;99.90;;;;;;5068891;28;20226;-94
2021/01/06 07:55:10;;;;;;;19.30;13.88;;;2.90;99.90;;;;;;5073581;22;20228;-93
2021/01/06 08:03:50;;;;;;;18.63;13.23;;;2.90;99.90;;;;;;5009857;28;20204;-93
2021/01/06 08:06:20;;;;;;;20.67;14.60;;;3.00;99.90;;;;;;5007275;28;20245;-93
2021/01/06 08:08:48;;;;;;;21.83;14.95;;;3.00;99.90;;;;;;5003293;28;20220;-95
2021/01/06 08:11:18;;;;;;;17.00;13.15;;;3.00;99.90;;;;;;4994124;28;20197;-94
2021/01/06 08:14:00;;;;;;;19.02;14.85;;;3.00;99.90;;;;;;5004159;28;20594;-95
2021/01/06 08:16:36;;;;;;;22.13;14.77;;;3.00;99.90;;;;;;5003553;28;20646;-94
2021/01/06 08:19:14;;;;;;;21.50;14.23;;;2.90;99.90;;;;;;5002815;28;20661;-95
2021/01/06 08:21:51;;;;;;;18.85;14.18;;;3.00;99.90;;;;;;5002456;28;20665;-94
2021/01/06 08:24:26;;;;;;;16.13;12.73;;;3.00;99.90;;;;;;5005669;28;20208;-93
2021/01/06 08:26:55;;;;;;;18.52;13.68;;;3.00;99.90;;;;;;5016964;28;20262;-94
2021/01/06 08:29:23;;;;;;;16.95;12.90;;;3.10;99.90;;;;;;5023128;28;20231;-94
2021/01/06 08:31:53;;;;;;;17.65;13.52;;;3.00;99.90;;;;;;5021606;28;20208;-94
2021/01/06 08:34:27;;;;;;;19.88;13.68;;;3.10;99.90;;;;;;5024547;28;20211;-94
2021/01/06 08:37:01;;;;;;;17.63;14.15;;;3.20;99.90;;;;;;5036055;28;20193;-95
2021/01/06 08:39:31;;;;;;;17.33;11.77;;;3.10;99.90;;;;;;5032500;28;20207;-94
2021/01/06 08:42:09;;;;;;;16.33;12.00;;;3.20;99.90;;;;;;5025009;28;20189;-94
2021/01/06 08:44:42;;;;;;;14.13;11.63;;;3.20;99.90;;;;;;5025243;28;20216;-94
2021/01/06 08:47:12;;;;;;;18.00;12.43;;;3.20;99.90;;;;;;5027795;28;20200;-94
2021/01/06 08:49:45;;;;;;;18.70;13.25;;;3.10;99.90;;;;;;5029448;28;20221;-93
2021/01/06 08:52:25;;;;;;;17.80;12.50;;;3.00;99.90;;;;;;5026541;28;20221;-94
2021/01/06 08:55:00;;;;;;;15.95;12.23;;;3.00;99.90;;;;;;5016930;28;20200;-93
2021/01/06 08:57:33;;;;;;;17.20;12.80;;;2.90;99.90;;;;;;5004097;28;20193;-94
2021/01/06 09:00:14;;;;;;;20.42;15.02;;;3.00;99.90;;;;;;5004813;28;20205;-94
2021/01/06 09:02:48;;;;;;;19.20;13.10;;;3.00;99.90;;;;;;5004038;28;20276;-93
2021/01/06 09:05:39;;;;;;;15.57;12.38;;;2.90;99.90;;;;;;4994507;28;20277;-94
2021/01/06 09:08:12;;;;;;;19.17;15.13;;;2.90;99.90;;;;;;5003019;28;20196;-93
2021/01/06 09:10:44;;;;;;;17.10;12.98;;;3.00;99.90;;;;;;5018666;28;20205;-94
2021/01/06 09:13:15;;;;;;;20.40;14.63;;;3.00;99.90;;;;;;5018973;28;20190;-94
2021/01/06 09:15:49;;;;;;;17.50;13.10;;;3.00;99.90;;;;;;5015788;28;20243;-94
2021/01/06 09:18:21;;;;;;;17.60;13.75;;;3.00;99.90;;;;;;5007175;28;20292;-93
2021/01/06 09:21:01;;;;;;;17.20;12.95;;;3.10;99.90;;;;;;5004625;28;20265;-93
2021/01/06 09:23:29;;;;;;;18.58;13.45;;;3.00;99.90;;;;;;5001681;28;20204;-93
2021/01/06 09:25:56;;;;;;;16.40;11.90;;;3.00;99.90;;;;;;5005892;28;20189;-94
2021/01/06 09:28:23;;;;;;;17.33;14.23;;;3.00;99.90;;;;;;5016288;28;20283;-94
2021/01/06 09:30:50;;;;;;;15.68;12.35;;;3.00;99.90;;;;;;5020053;28;20905;-93
2021/01/06 09:33:25;;;;;;;17.80;12.10;;;3.10;99.90;;;;;;5021183;28;20193;-95
2021/01/06 09:35:52;;;;;;;17.63;11.65;;;3.00;99.90;;;;;;5022789;28;20200;-94
2021/01/06 09:38:27;;;;;;;20.02;14.70;;;3.00;99.90;;;;;;5013362;28;20560;-94
2021/01/06 09:40:59;;;;;;;19.38;14.30;;;3.00;99.90;;;;;;5020175;28;20641;-94
2021/01/06 09:43:35;;;;;;;19.13;15.35;;;3.10;99.90;;;;;;5021878;28;20197;-95
2021/01/06 09:46:03;;;;;;;17.50;12.50;;;3.10;99.90;;;;;;5027987;28;20196;-94
2021/01/06 09:48:32;;;;;;;19.92;13.80;;;3.00;99.90;;;;;;5027521;28;20223;-94
2021/01/06 09:51:01;;;;;;;18.08;12.85;;;3.00;99.90;;;;;;5023450;28;20210;-94
2021/01/06 09:53:37;;;;;;;18.77;14.13;;;3.00;99.90;;;;;;5035805;28;20211;-93
2021/01/06 09:56:05;;;;;;;14.70;13.10;;;3.00;99.90;;;;;;5064885;28;20635;-93
2021/01/06 09:58:35;;;;;;;21.38;13.10;;;3.00;99.90;;;;;;5063882;28;20267;-94
2021/01/06 10:01:11;;;;;;;16.33;10.38;;;3.00;99.90;;;;;;5067454;28;20216;-94
2021/01/06 10:03:42;;;;;;;13.70;10.48;;;2.90;99.90;;;;;;5049267;28;20191;-93
2021/01/06 10:06:34;;;;;;;18.00;11.43;;;2.90;99.90;;;;;;5077927;28;20326;-93
2021/01/06 10:09:06;;;;;;;14.02;12.15;;;2.90;99.90;;;;;;5077252;28;20294;-94
2021/01/06 10:11:54;;;;;;;15.98;13.10;;;3.00;99.90;;;;;;5072706;28;20202;-93
2021/01/06 10:14:34;;;;;;;14.88;12.48;;;3.00;99.90;;;;;;5073116;28;20195;-93
2021/01/06 10:17:05;;;;;;;13.95;11.65;;;3.00;99.90;;;;;;5068614;28;20207;-94
2021/01/06 10:19:42;;;;;;;17.33;12.23;;;2.90;99.90;;;;;;5063129;28;20279;-94
2021/01/06 10:22:25;;;;;;;17.13;12.45;;;3.00;99.90;;;;;;5044308;28;20195;-93
2021/01/06 10:25:26;;;;;;;15.70;11.63;;;3.00;99.90;;;;;;5051410;28;20199;-94
2021/01/06 10:31:03;;;;;;;18.60;14.43;;;2.90;99.90;;;;;;5054720;28;20211;-94
2021/01/06 10:33:31;;;;;;;14.50;12.23;;;2.90;99.90;;;;;;5058178;28;20203;-94
2021/01/06 10:36:43;;;;;;;20.00;13.30;;;2.90;99.90;;;;;;5068097;28;20184;-93
2021/01/06 10:39:22;;;;;;;17.42;14.18;;;2.90;99.90;;;;;;4972139;28;20202;-93
2021/01/06 10:42:05;;;;;;;16.70;12.65;;;2.90;99.90;;;;;;5001025;28;20298;-94
2021/01/06 10:52:04;;;;;;;20.65;11.55;;;2.90;99.90;;;;;;5184681;23;20222;-95
2021/01/06 10:54:40;;;;;;;18.17;12.65;;;2.90;99.90;;;;;;5091614;28;20191;-93
2021/01/06 10:57:26;;;;;;;15.43;13.30;;;2.90;99.90;;;;;;5072214;28;20175;-93
2021/01/06 11:00:33;;;;;;;14.55;11.98;;;3.00;99.90;;;;;;5066125;28;20667;-92
2021/01/06 11:05:48;;;;;;;17.27;12.02;;;2.90;99.90;;;;;;5378523;23;20237;-94
2021/01/06 11:09:04;;;;;;;16.08;12.18;;;2.90;99.90;;;;;;5089445;28;20658;-92
2021/01/06 11:11:48;;;;;;;16.67;12.27;;;2.80;99.90;;;;;;5081822;28;20258;-92
2021/01/06 11:14:48;;;;;;;15.63;11.30;;;2.80;99.90;;;;;;5086695;28;20209;-95
2021/01/06 11:17:33;;;;;;;18.00;13.57;;;2.80;99.90;;;;;;5048387;28;20222;-92
2021/01/06 11:20:02;;;;;;;13.73;9.48;;;2.90;99.90;;;;;;5085007;28;20210;-92
2021/01/06 11:22:39;;;;;;;14.00;10.95;;;2.90;99.90;;;;;;5068020;28;20175;-91
2021/01/06 11:25:43;;;;;;;15.45;11.88;;;2.80;99.90;;;;;;5089020;28;20286;-91
2021/01/06 11:28:29;;;;;;;15.23;10.80;;;2.80;99.90;;;;;;5082104;28;20213;-90
2021/01/06 11:31:21;;;;;;;16.23;11.77;;;2.90;99.90;;;;;;5076534;28;20245;-91
2021/01/06 11:33:49;;;;;;;40.28;10.60;;;2.90;99.90;;;;;;5064869;28;20184;-92
2021/01/06 11:36:34;;;;;;;13.55;10.35;;;2.90;99.90;;;;;;5060167;28;20222;-91
2021/01/06 11:39:05;;;;;;;11.85;9.88;;;2.80;99.90;;;;;;5061509;28;20764;-93
2021/01/06 11:42:10;;;;;;;14.93;10.32;;;2.90;99.90;;;;;;5072125;28;20190;-91
2021/01/06 11:44:45;;;;;;;12.15;9.52;;;2.80;99.90;;;;;;5075318;28;20190;-93
2021/01/06 11:47:27;;;;;;;14.23;10.38;;;2.90;99.90;;;;;;5083031;28;20277;-94
2021/01/06 11:50:04;;;;;;;16.55;11.85;;;2.90;99.90;;;;;;5082017;28;20246;-92
2021/01/06 11:52:37;;;;;;;13.73;11.60;;;2.80;99.90;;;;;;5069050;28;20282;-95
2021/01/06 11:55:34;;;;;;;15.27;11.52;;;2.90;99.90;;;;;;5070375;28;20190;-94
2021/01/06 11:58:26;;;;;;;17.20;11.77;;;2.90;99.90;;;;;;5063265;28;20710;-95
2021/01/06 12:01:30;;;;;;;16.15;12.20;;;3.00;99.90;;;;;;5080573;28;20182;-94
2021/01/06 12:04:14;;;;;;;14.13;10.98;;;2.90;99.90;;;;;;5062585;28;20243;-94
2021/01/06 12:06:55;;;;;;;13.23;10.18;;;3.00;99.90;;;;;;5062526;28;20216;-94
2021/01/06 12:12:48;;;;;;;16.35;11.48;;;2.90;99.90;;;;;;5076065;28;20532;-94
2021/01/06 12:15:43;;;;;;;14.73;11.65;;;3.00;99.90;;;;;;5058964;28;20183;-94
2021/01/06 12:18:29;;;;;;;16.17;11.05;;;2.90;99.90;;;;;;5076889;28;20199;-95
2021/01/06 12:21:00;;;;;;;17.02;12.60;;;3.00;99.90;;;;;;5074763;28;20199;-94
2021/01/06 12:23:40;;;;;;;14.65;11.55;;;3.00;99.90;;;;;;5049402;28;20184;-93
2021/01/06 12:26:43;;;;;;;14.95;10.23;;;3.20;99.90;;;;;;5075716;28;20626;-94
2021/01/06 12:29:15;;;;;;;15.45;11.45;;;3.00;99.90;;;;;;5067854;28;20214;-94
2021/01/06 12:31:49;;;;;;;14.73;11.60;;;3.10;99.90;;;;;;5064791;28;20712;-94
2021/01/06 12:34:20;;;;;;;15.30;10.20;;;3.20;99.90;;;;;;5091011;28;20609;-93
2021/01/06 12:40:21;;;;;;;11.95;9.35;;;3.10;99.90;;;;;;5086242;28;20249;-91
2021/01/06 12:42:54;;;;;;;16.20;11.13;;;3.20;99.90;;;;;;5064888;28;20188;-90
2021/01/06 12:45:27;;;;;;;19.30;11.50;;;3.20;99.90;;;;;;5041599;28;20184;-91
2021/01/06 12:48:01;;;;;;;15.02;11.73;;;3.30;99.90;;;;;;5059327;28;20202;-91
2021/01/06 12:50:33;;;;;;;14.27;10.55;;;3.40;99.90;;;;;;5063188;28;20240;-89
2021/01/06 12:56:12;;;;;;;13.45;9.68;;;3.50;99.90;;;;;;5076974;28;20191;-91
2021/01/06 13:04:31;;;;;;;13.93;11.38;;;3.50;99.90;;;;;;5439842;23;20215;-89
2021/01/06 13:07:19;;;;;;;16.23;11.23;;;3.50;99.90;;;;;;5082071;28;20195;-89
2021/01/06 13:09:55;;;;;;;15.55;12.68;;;3.50;99.90;;;;;;5076076;28;20269;-91
2021/01/06 13:12:37;;;;;;;16.95;11.57;;;3.50;99.90;;;;;;5077056;28;20267;-88
2021/01/06 13:15:08;;;;;;;15.80;10.57;;;3.60;99.90;;;;;;5065294;28;20192;-91
2021/01/06 13:17:38;;;;;;;16.00;11.40;;;3.60;99.90;;;;;;5064026;28;20199;-89
2021/01/06 13:20:23;;;;;;;14.57;10.25;;;3.50;99.90;;;;;;5057795;28;20180;-90
2021/01/06 13:22:55;;;;;;;13.52;8.73;;;3.50;99.90;;;;;;5066954;28;20271;-90
2021/01/06 13:25:35;;;;;;;12.07;10.02;;;3.60;99.90;;;;;;5064881;28;20219;-90
2021/01/06 13:28:10;;;;;;;14.35;10.25;;;3.50;99.90;;;;;;5064143;28;20195;-90
2021/01/06 13:30:45;;;;;;;11.68;8.77;;;3.50;99.90;;;;;;5063554;28;20211;-89
2021/01/06 13:33:40;;;;;;;14.82;9.85;;;3.50;99.90;;;;;;5064275;28;20192;-90
2021/01/06 13:36:14;;;;;;;10.95;7.82;;;3.50;99.90;;;;;;5063547;28;20192;-90
2021/01/06 13:38:53;;;;;;;12.52;9.85;;;3.40;99.90;;;;;;5059765;28;20195;-91
2021/01/06 13:41:24;;;;;;;9.85;7.63;;;3.40;99.90;;;;;;5058138;28;20196;-90
2021/01/06 13:43:56;;;;;;;11.25;9.45;;;3.40;99.90;;;;;;5056736;28;20184;-90
2021/01/06 13:46:40;;;;;;;14.05;8.93;;;3.40;99.90;;;;;;5059218;28;20664;-90
2021/01/06 13:49:35;;;;;;;11.18;9.13;;;3.30;99.90;;;;;;5076101;28;20278;-90
2021/01/06 13:52:25;;;;;;;11.73;9.05;;;3.50;99.90;;;;;;5050123;28;20194;-90
2021/01/06 13:55:09;;;;;;;11.70;8.70;;;3.60;99.90;;;;;;5084914;28;20194;-90
2021/01/06 13:57:57;;;;;;;11.82;10.23;;;3.60;99.90;;;;;;5084336;28;20202;-89
2021/01/06 14:00:34;;;;;;;25.23;11.23;;;3.50;99.90;;;;;;5088821;28;20772;-89
2021/01/06 14:03:36;;;;;;;12.85;9.40;;;3.50;99.90;;;;;;5088016;28;20199;-90
2021/01/06 14:06:12;;;;;;;11.85;8.93;;;3.50;99.90;;;;;;5076132;28;20191;-90
2021/01/06 14:09:17;;;;;;;14.02;9.52;;;3.50;99.90;;;;;;5077432;28;20300;-90
2021/01/06 14:12:02;;;;;;;13.77;10.70;;;3.60;99.90;;;;;;5063866;28;20190;-90
2021/01/06 14:14:37;;;;;;;11.57;9.23;;;3.60;99.90;;;;;;5056668;28;20653;-90
2021/01/06 14:17:31;;;;;;;12.07;10.15;;;3.60;99.90;;;;;;5056172;28;20188;-90
2021/01/06 14:20:10;;;;;;;11.05;8.98;;;3.60;99.90;;;;;;5056310;28;20196;-90
2021/01/06 14:22:43;;;;;;;12.27;8.63;;;3.60;99.90;;;;;;5056696;28;20267;-90
2021/01/06 14:25:31;;;;;;;12.00;8.88;;;3.60;99.90;;;;;;5066828;28;20180;-90
2021/01/06 14:28:06;;;;;;;12.93;9.57;;;3.70;99.90;;;;;;5057651;28;20198;-92
2021/01/06 14:30:37;;;;;;;14.32;10.02;;;3.60;99.90;;;;;;5061629;28;20211;-92
2021/01/06 14:33:23;;;;;;;12.18;8.90;;;3.60;99.90;;;;;;5060163;28;20259;-91
2021/01/06 14:35:59;;;;;;;11.88;9.52;;;3.60;99.90;;;;;;5078905;28;20183;-90
2021/01/06 14:38:42;;;;;;;11.30;8.77;;;3.60;99.90;;;;;;5086566;28;20199;-90